sensor_id;sensor_type;location;lat;lon;timestamp;P1;durP1;ratioP1;P2;durP2;ratioP2
15449;SDS011;7826;49.784;9.934;2023-08-12T00:01:58;3.40;;;3.10;;
15449;SDS011;7826;49.784;9.934;2023-08-12T00:04:24;3.63;;;3.30;;
15449;SDS011;7826;49.784;9.934;2023-08-12T00:06:51;4.43;;;3.17;;
15449;SDS011;7826;49.784;9.934;2023-08-12T00:09:17;4.37;;;3.27;;
15449;SDS011;7826;49.784;9.934;2023-08-12T00:11:44;4.17;;;3.50;;
15449;SDS011;7826;49.784;9.934;2023-08-12T00:14:10;3.83;;;3.20;;
15449;SDS011;7826;49.784;9.934;2023-08-12T00:16:37;3.23;;;3.00;;
15449;SDS011;7826;49.784;9.934;2023-08-12T00:19:03;5.00;;;3.53;;
15449;SDS011;7826;49.784;9.934;2023-08-12T00:21:30;3.90;;;3.33;;
15449;SDS011;7826;49.784;9.934;2023-08-12T00:23:57;3.67;;;3.40;;
15449;SDS011;7826;49.784;9.934;2023-08-12T00:26:23;3.87;;;3.57;;
15449;SDS011;7826;49.784;9.934;2023-08-12T00:28:50;4.83;;;3.70;;
15449;SDS011;7826;49.784;9.934;2023-08-12T00:31:17;4.33;;;3.70;;
15449;SDS011;7826;49.784;9.934;2023-08-12T00:33:43;4.10;;;3.70;;
15449;SDS011;7826;49.784;9.934;2023-08-12T00:36:10;3.70;;;3.40;;
15449;SDS011;7826;49.784;9.934;2023-08-12T00:38:36;3.77;;;3.43;;
15449;SDS011;7826;49.784;9.934;2023-08-12T00:41:03;3.90;;;3.60;;
15449;SDS011;7826;49.784;9.934;2023-08-12T00:43:29;4.10;;;3.80;;
15449;SDS011;7826;49.784;9.934;2023-08-12T00:45:56;7.40;;;3.80;;
15449;SDS011;7826;49.784;9.934;2023-08-12T00:48:23;5.40;;;3.80;;
15449;SDS011;7826;49.784;9.934;2023-08-12T00:50:50;3.90;;;3.60;;
15449;SDS011;7826;49.784;9.934;2023-08-12T00:53:18;4.77;;;3.63;;
15449;SDS011;7826;49.784;9.934;2023-08-12T00:55:44;4.13;;;3.73;;
15449;SDS011;7826;49.784;9.934;2023-08-12T00:58:11;4.27;;;3.77;;
15449;SDS011;7826;49.784;9.934;2023-08-12T01:00:38;6.07;;;3.73;;
15449;SDS011;7826;49.784;9.934;2023-08-12T01:03:05;5.33;;;4.10;;
15449;SDS011;7826;49.784;9.934;2023-08-12T01:05:32;7.10;;;3.80;;
15449;SDS011;7826;49.784;9.934;2023-08-12T01:07:59;4.70;;;4.30;;
15449;SDS011;7826;49.784;9.934;2023-08-12T01:10:27;4.60;;;4.20;;
15449;SDS011;7826;49.784;9.934;2023-08-12T01:15:52;4.67;;;4.27;;
15449;SDS011;7826;49.784;9.934;2023-08-12T01:18:21;5.23;;;4.10;;
15449;SDS011;7826;49.784;9.934;2023-08-12T01:20:50;4.57;;;3.80;;
15449;SDS011;7826;49.784;9.934;2023-08-12T01:23:17;4.57;;;4.10;;
15449;SDS011;7826;49.784;9.934;2023-08-12T01:25:44;5.17;;;4.00;;
15449;SDS011;7826;49.784;9.934;2023-08-12T01:28:10;5.00;;;4.10;;
15449;SDS011;7826;49.784;9.934;2023-08-12T01:30:46;6.10;;;4.63;;
15449;SDS011;7826;49.784;9.934;2023-08-12T01:33:37;4.40;;;4.00;;
15449;SDS011;7826;49.784;9.934;2023-08-12T01:36:13;4.67;;;4.17;;
15449;SDS011;7826;49.784;9.934;2023-08-12T01:38:42;4.87;;;4.27;;
15449;SDS011;7826;49.784;9.934;2023-08-12T01:41:10;4.33;;;3.93;;
15449;SDS011;7826;49.784;9.934;2023-08-12T01:43:38;5.07;;;4.17;;
15449;SDS011;7826;49.784;9.934;2023-08-12T01:46:06;4.30;;;3.90;;
15449;SDS011;7826;49.784;9.934;2023-08-12T01:48:32;6.13;;;4.17;;
15449;SDS011;7826;49.784;9.934;2023-08-12T01:50:59;4.90;;;4.50;;
15449;SDS011;7826;49.784;9.934;2023-08-12T01:53:26;6.37;;;3.90;;
15449;SDS011;7826;49.784;9.934;2023-08-12T01:55:52;4.80;;;4.07;;
15449;SDS011;7826;49.784;9.934;2023-08-12T01:58:19;7.60;;;4.30;;
15449;SDS011;7826;49.784;9.934;2023-08-12T02:00:45;5.67;;;4.10;;
15449;SDS011;7826;49.784;9.934;2023-08-12T02:03:12;4.23;;;3.93;;
15449;SDS011;7826;49.784;9.934;2023-08-12T02:05:38;4.03;;;3.70;;
15449;SDS011;7826;49.784;9.934;2023-08-12T02:08:06;4.20;;;3.80;;
15449;SDS011;7826;49.784;9.934;2023-08-12T02:10:33;4.80;;;4.30;;
15449;SDS011;7826;49.784;9.934;2023-08-12T02:13:00;4.90;;;4.40;;
15449;SDS011;7826;49.784;9.934;2023-08-12T02:15:26;4.53;;;3.90;;
15449;SDS011;7826;49.784;9.934;2023-08-12T02:17:53;4.60;;;4.07;;
15449;SDS011;7826;49.784;9.934;2023-08-12T02:20:19;5.23;;;4.80;;
15449;SDS011;7826;49.784;9.934;2023-08-12T02:22:46;4.70;;;4.30;;
15449;SDS011;7826;49.784;9.934;2023-08-12T02:25:12;4.73;;;4.27;;
15449;SDS011;7826;49.784;9.934;2023-08-12T02:27:39;5.23;;;4.10;;
15449;SDS011;7826;49.784;9.934;2023-08-12T02:30:05;4.97;;;4.50;;
15449;SDS011;7826;49.784;9.934;2023-08-12T02:32:32;4.50;;;4.10;;
15449;SDS011;7826;49.784;9.934;2023-08-12T02:34:59;4.23;;;3.93;;
15449;SDS011;7826;49.784;9.934;2023-08-12T02:37:25;4.30;;;3.90;;
15449;SDS011;7826;49.784;9.934;2023-08-12T02:39:52;6.23;;;4.47;;
15449;SDS011;7826;49.784;9.934;2023-08-12T02:42:18;5.00;;;4.37;;
15449;SDS011;7826;49.784;9.934;2023-08-12T02:44:45;4.80;;;4.40;;
15449;SDS011;7826;49.784;9.934;2023-08-12T02:47:11;4.63;;;4.23;;
15449;SDS011;7826;49.784;9.934;2023-08-12T02:49:38;4.70;;;4.30;;
15449;SDS011;7826;49.784;9.934;2023-08-12T02:52:04;4.47;;;3.97;;
15449;SDS011;7826;49.784;9.934;2023-08-12T02:54:31;4.20;;;3.90;;
15449;SDS011;7826;49.784;9.934;2023-08-12T02:56:57;4.67;;;4.27;;
15449;SDS011;7826;49.784;9.934;2023-08-12T02:59:24;4.77;;;4.37;;
15449;SDS011;7826;49.784;9.934;2023-08-12T03:01:51;5.50;;;4.90;;
15449;SDS011;7826;49.784;9.934;2023-08-12T03:04:18;7.53;;;4.40;;
15449;SDS011;7826;49.784;9.934;2023-08-12T03:06:44;5.70;;;4.20;;
15449;SDS011;7826;49.784;9.934;2023-08-12T03:09:11;4.97;;;4.60;;
15449;SDS011;7826;49.784;9.934;2023-08-12T03:11:37;6.73;;;4.27;;
15449;SDS011;7826;49.784;9.934;2023-08-12T03:14:04;4.67;;;4.27;;
15449;SDS011;7826;49.784;9.934;2023-08-12T03:16:30;4.70;;;4.30;;
15449;SDS011;7826;49.784;9.934;2023-08-12T03:18:57;5.33;;;4.60;;
15449;SDS011;7826;49.784;9.934;2023-08-12T03:21:24;5.57;;;4.43;;
15449;SDS011;7826;49.784;9.934;2023-08-12T03:23:50;5.53;;;4.40;;
15449;SDS011;7826;49.784;9.934;2023-08-12T03:26:17;5.47;;;4.70;;
15449;SDS011;7826;49.784;9.934;2023-08-12T03:28:43;5.03;;;4.63;;
15449;SDS011;7826;49.784;9.934;2023-08-12T03:31:10;5.37;;;4.67;;
15449;SDS011;7826;49.784;9.934;2023-08-12T03:33:36;4.93;;;4.53;;
15449;SDS011;7826;49.784;9.934;2023-08-12T03:36:03;5.67;;;5.00;;
15449;SDS011;7826;49.784;9.934;2023-08-12T03:38:30;5.40;;;4.90;;
15449;SDS011;7826;49.784;9.934;2023-08-12T03:40:56;5.20;;;4.70;;
15449;SDS011;7826;49.784;9.934;2023-08-12T03:43:23;6.30;;;4.83;;
15449;SDS011;7826;49.784;9.934;2023-08-12T03:45:49;8.60;;;4.80;;
15449;SDS011;7826;49.784;9.934;2023-08-12T03:48:16;7.23;;;5.03;;
15449;SDS011;7826;49.784;9.934;2023-08-12T03:50:43;5.67;;;4.60;;
15449;SDS011;7826;49.784;9.934;2023-08-12T03:53:11;7.03;;;4.60;;
15449;SDS011;7826;49.784;9.934;2023-08-12T03:55:38;5.13;;;4.63;;
15449;SDS011;7826;49.784;9.934;2023-08-12T03:58:05;5.80;;;5.23;;
15449;SDS011;7826;49.784;9.934;2023-08-12T04:00:31;5.47;;;4.40;;
15449;SDS011;7826;49.784;9.934;2023-08-12T04:02:58;7.10;;;4.90;;
15449;SDS011;7826;49.784;9.934;2023-08-12T04:05:24;6.03;;;5.43;;
15449;SDS011;7826;49.784;9.934;2023-08-12T04:07:51;5.63;;;4.40;;
15449;SDS011;7826;49.784;9.934;2023-08-12T04:10:17;6.17;;;5.03;;
15449;SDS011;7826;49.784;9.934;2023-08-12T04:12:44;5.57;;;4.90;;
15449;SDS011;7826;49.784;9.934;2023-08-12T04:15:10;6.40;;;5.80;;
15449;SDS011;7826;49.784;9.934;2023-08-12T04:17:37;6.73;;;5.60;;
15449;SDS011;7826;49.784;9.934;2023-08-12T04:20:07;5.60;;;5.07;;
15449;SDS011;7826;49.784;9.934;2023-08-12T04:22:33;5.93;;;5.27;;
15449;SDS011;7826;49.784;9.934;2023-08-12T04:25:00;5.77;;;5.27;;
15449;SDS011;7826;49.784;9.934;2023-08-12T04:27:28;6.07;;;5.47;;
15449;SDS011;7826;49.784;9.934;2023-08-12T04:29:54;6.83;;;5.77;;
15449;SDS011;7826;49.784;9.934;2023-08-12T04:32:31;5.73;;;5.33;;
15449;SDS011;7826;49.784;9.934;2023-08-12T04:34:58;5.50;;;5.00;;
15449;SDS011;7826;49.784;9.934;2023-08-12T04:37:25;6.10;;;5.47;;
15449;SDS011;7826;49.784;9.934;2023-08-12T04:39:52;5.67;;;5.17;;
15449;SDS011;7826;49.784;9.934;2023-08-12T04:42:18;5.90;;;5.20;;
15449;SDS011;7826;49.784;9.934;2023-08-12T04:44:45;5.57;;;5.07;;
15449;SDS011;7826;49.784;9.934;2023-08-12T04:47:11;5.47;;;5.00;;
15449;SDS011;7826;49.784;9.934;2023-08-12T04:49:39;5.33;;;4.83;;
15449;SDS011;7826;49.784;9.934;2023-08-12T04:52:06;5.00;;;4.53;;
15449;SDS011;7826;49.784;9.934;2023-08-12T04:54:33;6.10;;;4.70;;
15449;SDS011;7826;49.784;9.934;2023-08-12T04:57:03;5.20;;;4.70;;
15449;SDS011;7826;49.784;9.934;2023-08-12T04:59:34;5.00;;;4.50;;
15449;SDS011;7826;49.784;9.934;2023-08-12T05:02:00;6.23;;;4.90;;
15449;SDS011;7826;49.784;9.934;2023-08-12T05:04:28;6.13;;;4.90;;
15449;SDS011;7826;49.784;9.934;2023-08-12T05:06:57;4.93;;;4.50;;
15449;SDS011;7826;49.784;9.934;2023-08-12T05:09:24;5.53;;;5.03;;
15449;SDS011;7826;49.784;9.934;2023-08-12T05:11:50;6.50;;;4.70;;
15449;SDS011;7826;49.784;9.934;2023-08-12T05:14:17;6.93;;;4.80;;
15449;SDS011;7826;49.784;9.934;2023-08-12T05:16:43;8.23;;;4.47;;
15449;SDS011;7826;49.784;9.934;2023-08-12T05:19:10;5.23;;;4.50;;
15449;SDS011;7826;49.784;9.934;2023-08-12T05:21:36;5.33;;;4.57;;
15449;SDS011;7826;49.784;9.934;2023-08-12T05:24:03;4.93;;;4.57;;
15449;SDS011;7826;49.784;9.934;2023-08-12T05:26:30;4.93;;;4.43;;
15449;SDS011;7826;49.784;9.934;2023-08-12T05:28:56;4.63;;;4.23;;
15449;SDS011;7826;49.784;9.934;2023-08-12T05:31:23;5.10;;;4.53;;
15449;SDS011;7826;49.784;9.934;2023-08-12T05:33:49;5.17;;;4.67;;
15449;SDS011;7826;49.784;9.934;2023-08-12T05:36:27;6.43;;;4.93;;
15449;SDS011;7826;49.784;9.934;2023-08-12T05:38:53;6.73;;;4.87;;
15449;SDS011;7826;49.784;9.934;2023-08-12T05:41:20;5.83;;;4.93;;
15449;SDS011;7826;49.784;9.934;2023-08-12T05:43:47;4.87;;;4.30;;
15449;SDS011;7826;49.784;9.934;2023-08-12T05:46:14;5.37;;;4.57;;
15449;SDS011;7826;49.784;9.934;2023-08-12T05:48:40;6.07;;;4.60;;
15449;SDS011;7826;49.784;9.934;2023-08-12T05:51:37;5.20;;;4.70;;
15449;SDS011;7826;49.784;9.934;2023-08-12T05:54:04;6.03;;;4.63;;
15449;SDS011;7826;49.784;9.934;2023-08-12T05:56:31;6.13;;;4.80;;
15449;SDS011;7826;49.784;9.934;2023-08-12T05:58:58;5.03;;;4.20;;
15449;SDS011;7826;49.784;9.934;2023-08-12T06:01:26;6.43;;;4.43;;
15449;SDS011;7826;49.784;9.934;2023-08-12T06:03:57;4.97;;;4.47;;
15449;SDS011;7826;49.784;9.934;2023-08-12T06:06:24;5.00;;;4.60;;
15449;SDS011;7826;49.784;9.934;2023-08-12T06:08:50;6.97;;;4.30;;
15449;SDS011;7826;49.784;9.934;2023-08-12T06:11:17;5.13;;;4.70;;
15449;SDS011;7826;49.784;9.934;2023-08-12T06:13:43;5.03;;;4.53;;
15449;SDS011;7826;49.784;9.934;2023-08-12T06:16:10;4.83;;;4.17;;
15449;SDS011;7826;49.784;9.934;2023-08-12T06:18:36;4.57;;;4.17;;
15449;SDS011;7826;49.784;9.934;2023-08-12T06:21:03;6.57;;;4.90;;
15449;SDS011;7826;49.784;9.934;2023-08-12T06:23:29;5.23;;;4.73;;
15449;SDS011;7826;49.784;9.934;2023-08-12T06:25:56;5.00;;;4.50;;
15449;SDS011;7826;49.784;9.934;2023-08-12T06:28:23;5.30;;;4.67;;
15449;SDS011;7826;49.784;9.934;2023-08-12T06:30:49;6.30;;;4.70;;
15449;SDS011;7826;49.784;9.934;2023-08-12T06:33:16;6.63;;;4.30;;
15449;SDS011;7826;49.784;9.934;2023-08-12T06:35:43;5.43;;;4.30;;
15449;SDS011;7826;49.784;9.934;2023-08-12T06:38:10;4.77;;;4.37;;
15449;SDS011;7826;49.784;9.934;2023-08-12T06:40:38;4.73;;;4.23;;
15449;SDS011;7826;49.784;9.934;2023-08-12T06:43:04;5.47;;;4.57;;
15449;SDS011;7826;49.784;9.934;2023-08-12T06:45:33;5.40;;;4.63;;
15449;SDS011;7826;49.784;9.934;2023-08-12T06:47:59;4.93;;;4.10;;
15449;SDS011;7826;49.784;9.934;2023-08-12T06:50:28;5.80;;;4.57;;
15449;SDS011;7826;49.784;9.934;2023-08-12T06:52:54;6.60;;;4.43;;
15449;SDS011;7826;49.784;9.934;2023-08-12T06:55:21;4.83;;;4.43;;
15449;SDS011;7826;49.784;9.934;2023-08-12T06:57:47;5.03;;;4.43;;
15449;SDS011;7826;49.784;9.934;2023-08-12T07:00:13;5.13;;;4.67;;
15449;SDS011;7826;49.784;9.934;2023-08-12T07:02:40;5.10;;;4.70;;
15449;SDS011;7826;49.784;9.934;2023-08-12T07:05:08;4.87;;;4.43;;
15449;SDS011;7826;49.784;9.934;2023-08-12T07:07:35;6.67;;;4.90;;
15449;SDS011;7826;49.784;9.934;2023-08-12T07:10:01;5.43;;;4.93;;
15449;SDS011;7826;49.784;9.934;2023-08-12T07:12:29;4.87;;;4.37;;
15449;SDS011;7826;49.784;9.934;2023-08-12T07:14:55;4.67;;;4.37;;
15449;SDS011;7826;49.784;9.934;2023-08-12T07:17:22;5.83;;;4.57;;
15449;SDS011;7826;49.784;9.934;2023-08-12T07:19:48;7.10;;;4.53;;
15449;SDS011;7826;49.784;9.934;2023-08-12T07:22:15;5.10;;;4.63;;
15449;SDS011;7826;49.784;9.934;2023-08-12T07:24:45;5.27;;;4.60;;
15449;SDS011;7826;49.784;9.934;2023-08-12T07:27:11;4.67;;;4.27;;
15449;SDS011;7826;49.784;9.934;2023-08-12T07:29:38;4.67;;;4.30;;
15449;SDS011;7826;49.784;9.934;2023-08-12T07:32:04;5.00;;;4.50;;
15449;SDS011;7826;49.784;9.934;2023-08-12T07:34:31;5.13;;;4.17;;
15449;SDS011;7826;49.784;9.934;2023-08-12T07:36:58;4.80;;;4.40;;
15449;SDS011;7826;49.784;9.934;2023-08-12T07:39:24;5.27;;;4.77;;
15449;SDS011;7826;49.784;9.934;2023-08-12T07:41:51;6.07;;;4.53;;
15449;SDS011;7826;49.784;9.934;2023-08-12T07:44:17;5.07;;;4.47;;
15449;SDS011;7826;49.784;9.934;2023-08-12T07:46:44;5.40;;;4.30;;
15449;SDS011;7826;49.784;9.934;2023-08-12T07:49:10;4.93;;;4.53;;
15449;SDS011;7826;49.784;9.934;2023-08-12T07:51:37;5.03;;;4.57;;
15449;SDS011;7826;49.784;9.934;2023-08-12T07:54:03;5.57;;;4.40;;
15449;SDS011;7826;49.784;9.934;2023-08-12T07:56:30;4.97;;;4.50;;
15449;SDS011;7826;49.784;9.934;2023-08-12T07:58:57;4.63;;;4.10;;
15449;SDS011;7826;49.784;9.934;2023-08-12T08:01:23;5.37;;;4.83;;
15449;SDS011;7826;49.784;9.934;2023-08-12T08:03:50;6.27;;;5.17;;
15449;SDS011;7826;49.784;9.934;2023-08-12T08:06:16;5.17;;;4.60;;
15449;SDS011;7826;49.784;9.934;2023-08-12T08:08:43;5.23;;;4.73;;
15449;SDS011;7826;49.784;9.934;2023-08-12T08:11:10;5.57;;;5.07;;
15449;SDS011;7826;49.784;9.934;2023-08-12T08:13:36;5.00;;;4.60;;
15449;SDS011;7826;49.784;9.934;2023-08-12T08:16:03;6.60;;;4.80;;
15449;SDS011;7826;49.784;9.934;2023-08-12T08:18:29;5.63;;;5.13;;
15449;SDS011;7826;49.784;9.934;2023-08-12T08:20:56;5.80;;;4.97;;
15449;SDS011;7826;49.784;9.934;2023-08-12T08:23:23;6.67;;;4.83;;
15449;SDS011;7826;49.784;9.934;2023-08-12T08:25:49;6.40;;;5.07;;
15449;SDS011;7826;49.784;9.934;2023-08-12T08:28:16;5.20;;;4.70;;
15449;SDS011;7826;49.784;9.934;2023-08-12T08:30:43;4.93;;;4.50;;
15449;SDS011;7826;49.784;9.934;2023-08-12T08:33:09;6.93;;;5.43;;
15449;SDS011;7826;49.784;9.934;2023-08-12T08:35:36;5.13;;;4.73;;
15449;SDS011;7826;49.784;9.934;2023-08-12T08:38:03;5.60;;;5.10;;
15449;SDS011;7826;49.784;9.934;2023-08-12T08:40:30;5.83;;;5.23;;
15449;SDS011;7826;49.784;9.934;2023-08-12T08:42:57;7.43;;;5.20;;
15449;SDS011;7826;49.784;9.934;2023-08-12T08:45:27;5.83;;;5.10;;
15449;SDS011;7826;49.784;9.934;2023-08-12T08:47:57;5.63;;;5.20;;
15449;SDS011;7826;49.784;9.934;2023-08-12T08:50:25;6.43;;;5.03;;
15449;SDS011;7826;49.784;9.934;2023-08-12T08:52:53;6.43;;;5.33;;
15449;SDS011;7826;49.784;9.934;2023-08-12T08:55:22;7.43;;;4.83;;
15449;SDS011;7826;49.784;9.934;2023-08-12T08:57:49;6.70;;;5.03;;
15449;SDS011;7826;49.784;9.934;2023-08-12T09:00:16;5.63;;;5.13;;
15449;SDS011;7826;49.784;9.934;2023-08-12T09:02:46;6.00;;;5.47;;
15449;SDS011;7826;49.784;9.934;2023-08-12T09:05:14;6.30;;;5.10;;
15449;SDS011;7826;49.784;9.934;2023-08-12T09:07:43;5.73;;;5.10;;
15449;SDS011;7826;49.784;9.934;2023-08-12T09:10:10;5.43;;;5.00;;
15449;SDS011;7826;49.784;9.934;2023-08-12T09:12:37;5.28;;;4.85;;
15449;SDS011;7826;49.784;9.934;2023-08-12T09:15:04;6.23;;;5.00;;
15449;SDS011;7826;49.784;9.934;2023-08-12T09:17:32;6.13;;;5.53;;
15449;SDS011;7826;49.784;9.934;2023-08-12T09:19:59;5.70;;;5.20;;
15449;SDS011;7826;49.784;9.934;2023-08-12T09:22:26;7.10;;;5.20;;
15449;SDS011;7826;49.784;9.934;2023-08-12T09:24:56;5.87;;;5.27;;
15449;SDS011;7826;49.784;9.934;2023-08-12T09:27:24;7.73;;;5.63;;
15449;SDS011;7826;49.784;9.934;2023-08-12T09:29:51;5.23;;;4.83;;
15449;SDS011;7826;49.784;9.934;2023-08-12T09:32:24;5.17;;;4.70;;
15449;SDS011;7826;49.784;9.934;2023-08-12T09:34:51;6.50;;;5.63;;
15449;SDS011;7826;49.784;9.934;2023-08-12T09:37:19;8.63;;;5.73;;
15449;SDS011;7826;49.784;9.934;2023-08-12T09:39:50;5.80;;;5.20;;
15449;SDS011;7826;49.784;9.934;2023-08-12T09:42:18;6.53;;;5.40;;
15449;SDS011;7826;49.784;9.934;2023-08-12T09:44:44;6.27;;;5.67;;
15449;SDS011;7826;49.784;9.934;2023-08-12T09:47:12;6.67;;;5.30;;
15449;SDS011;7826;49.784;9.934;2023-08-12T09:49:38;5.70;;;5.20;;
15449;SDS011;7826;49.784;9.934;2023-08-12T09:52:15;7.93;;;5.50;;
15449;SDS011;7826;49.784;9.934;2023-08-12T09:54:42;7.63;;;5.27;;
15449;SDS011;7826;49.784;9.934;2023-08-12T09:57:10;6.53;;;5.20;;
15449;SDS011;7826;49.784;9.934;2023-08-12T09:59:38;6.57;;;5.63;;
15449;SDS011;7826;49.784;9.934;2023-08-12T10:02:07;6.57;;;5.60;;
15449;SDS011;7826;49.784;9.934;2023-08-12T10:04:39;5.63;;;5.13;;
15449;SDS011;7826;49.784;9.934;2023-08-12T10:07:10;12.23;;;5.60;;
15449;SDS011;7826;49.784;9.934;2023-08-12T10:09:40;5.97;;;5.47;;
15449;SDS011;7826;49.784;9.934;2023-08-12T10:12:08;6.57;;;5.93;;
15449;SDS011;7826;49.784;9.934;2023-08-12T10:14:36;5.90;;;5.30;;
15449;SDS011;7826;49.784;9.934;2023-08-12T10:17:04;8.43;;;5.60;;
15449;SDS011;7826;49.784;9.934;2023-08-12T10:19:31;6.83;;;5.23;;
15449;SDS011;7826;49.784;9.934;2023-08-12T10:21:58;6.10;;;5.53;;
15449;SDS011;7826;49.784;9.934;2023-08-12T10:24:28;5.90;;;5.40;;
15449;SDS011;7826;49.784;9.934;2023-08-12T10:26:55;5.53;;;4.77;;
15449;SDS011;7826;49.784;9.934;2023-08-12T10:29:22;5.43;;;4.93;;
15449;SDS011;7826;49.784;9.934;2023-08-12T10:31:50;8.40;;;5.60;;
15449;SDS011;7826;49.784;9.934;2023-08-12T10:34:20;5.43;;;5.03;;
15449;SDS011;7826;49.784;9.934;2023-08-12T10:36:48;5.60;;;4.87;;
15449;SDS011;7826;49.784;9.934;2023-08-12T10:39:27;6.00;;;5.13;;
15449;SDS011;7826;49.784;9.934;2023-08-12T10:41:57;5.23;;;4.83;;
15449;SDS011;7826;49.784;9.934;2023-08-12T10:45:06;5.63;;;5.13;;
15449;SDS011;7826;49.784;9.934;2023-08-12T10:47:17;8.40;;;5.60;;
15449;SDS011;7826;49.784;9.934;2023-08-12T10:49:47;5.33;;;4.83;;
15449;SDS011;7826;49.784;9.934;2023-08-12T10:52:28;5.27;;;4.73;;
15449;SDS011;7826;49.784;9.934;2023-08-12T10:55:04;6.20;;;5.50;;
15449;SDS011;7826;49.784;9.934;2023-08-12T10:57:45;5.70;;;5.27;;
15449;SDS011;7826;49.784;9.934;2023-08-12T11:00:15;5.40;;;4.90;;
15449;SDS011;7826;49.784;9.934;2023-08-12T11:02:44;5.80;;;5.17;;
15449;SDS011;7826;49.784;9.934;2023-08-12T11:05:12;5.13;;;4.70;;
15449;SDS011;7826;49.784;9.934;2023-08-12T11:07:44;5.07;;;4.60;;
15449;SDS011;7826;49.784;9.934;2023-08-12T11:10:19;6.43;;;5.13;;
15449;SDS011;7826;49.784;9.934;2023-08-12T11:12:48;6.37;;;5.10;;
15449;SDS011;7826;49.784;9.934;2023-08-12T11:16:05;5.47;;;4.97;;
15449;SDS011;7826;49.784;9.934;2023-08-12T11:18:09;5.53;;;5.10;;
15449;SDS011;7826;49.784;9.934;2023-08-12T11:20:38;6.53;;;5.30;;
15449;SDS011;7826;49.784;9.934;2023-08-12T11:23:06;7.63;;;5.10;;
15449;SDS011;7826;49.784;9.934;2023-08-12T11:25:34;7.77;;;5.30;;
15449;SDS011;7826;49.784;9.934;2023-08-12T11:28:01;5.80;;;5.30;;
15449;SDS011;7826;49.784;9.934;2023-08-12T11:30:29;5.80;;;5.30;;
15449;SDS011;7826;49.784;9.934;2023-08-12T11:32:56;7.87;;;5.80;;
15449;SDS011;7826;49.784;9.934;2023-08-12T11:35:24;6.10;;;5.50;;
15449;SDS011;7826;49.784;9.934;2023-08-12T11:37:51;7.13;;;5.40;;
15449;SDS011;7826;49.784;9.934;2023-08-12T11:40:19;6.53;;;5.80;;
15449;SDS011;7826;49.784;9.934;2023-08-12T11:42:47;5.90;;;5.20;;
15449;SDS011;7826;49.784;9.934;2023-08-12T11:45:24;6.50;;;5.30;;
15449;SDS011;7826;49.784;9.934;2023-08-12T11:47:52;5.97;;;5.47;;
15449;SDS011;7826;49.784;9.934;2023-08-12T11:50:20;6.13;;;5.63;;
15449;SDS011;7826;49.784;9.934;2023-08-12T11:52:49;6.20;;;5.60;;
15449;SDS011;7826;49.784;9.934;2023-08-12T11:55:16;6.17;;;5.70;;
15449;SDS011;7826;49.784;9.934;2023-08-12T11:57:43;6.30;;;5.80;;
15449;SDS011;7826;49.784;9.934;2023-08-12T12:00:11;6.20;;;5.70;;
15449;SDS011;7826;49.784;9.934;2023-08-12T12:02:48;5.60;;;5.10;;
15449;SDS011;7826;49.784;9.934;2023-08-12T12:05:23;6.57;;;5.27;;
15449;SDS011;7826;49.784;9.934;2023-08-12T12:07:53;6.13;;;5.63;;
15449;SDS011;7826;49.784;9.934;2023-08-12T12:10:20;5.50;;;5.10;;
15449;SDS011;7826;49.784;9.934;2023-08-12T12:12:54;6.50;;;5.90;;
15449;SDS011;7826;49.784;9.934;2023-08-12T12:15:21;6.00;;;5.40;;
15449;SDS011;7826;49.784;9.934;2023-08-12T12:17:48;6.63;;;5.60;;
15449;SDS011;7826;49.784;9.934;2023-08-12T12:20:16;6.00;;;5.47;;
15449;SDS011;7826;49.784;9.934;2023-08-12T12:22:43;5.50;;;5.10;;
15449;SDS011;7826;49.784;9.934;2023-08-12T12:25:12;5.53;;;5.13;;
15449;SDS011;7826;49.784;9.934;2023-08-12T12:27:40;5.20;;;4.80;;
15449;SDS011;7826;49.784;9.934;2023-08-12T12:30:08;5.23;;;4.83;;
15449;SDS011;7826;49.784;9.934;2023-08-12T12:32:36;5.40;;;4.90;;
15449;SDS011;7826;49.784;9.934;2023-08-12T12:35:03;5.30;;;4.40;;
15449;SDS011;7826;49.784;9.934;2023-08-12T12:37:33;5.57;;;5.07;;
15449;SDS011;7826;49.784;9.934;2023-08-12T12:40:00;5.00;;;4.60;;
15449;SDS011;7826;49.784;9.934;2023-08-12T12:42:29;4.80;;;4.40;;
15449;SDS011;7826;49.784;9.934;2023-08-12T12:44:56;4.57;;;4.27;;
15449;SDS011;7826;49.784;9.934;2023-08-12T12:47:22;5.60;;;5.10;;
15449;SDS011;7826;49.784;9.934;2023-08-12T12:49:49;6.40;;;5.17;;
15449;SDS011;7826;49.784;9.934;2023-08-12T12:52:15;5.70;;;4.93;;
15449;SDS011;7826;49.784;9.934;2023-08-12T12:54:42;4.80;;;4.50;;
15449;SDS011;7826;49.784;9.934;2023-08-12T12:57:08;5.57;;;5.17;;
15449;SDS011;7826;49.784;9.934;2023-08-12T12:59:35;5.83;;;4.60;;
15449;SDS011;7826;49.784;9.934;2023-08-12T13:02:02;6.63;;;4.73;;
15449;SDS011;7826;49.784;9.934;2023-08-12T13:04:28;5.07;;;4.50;;
15449;SDS011;7826;49.784;9.934;2023-08-12T13:06:55;5.43;;;4.27;;
15449;SDS011;7826;49.784;9.934;2023-08-12T13:09:22;4.67;;;4.23;;
15449;SDS011;7826;49.784;9.934;2023-08-12T13:11:48;5.23;;;4.73;;
15449;SDS011;7826;49.784;9.934;2023-08-12T13:14:15;5.10;;;4.70;;
15449;SDS011;7826;49.784;9.934;2023-08-12T13:16:44;5.03;;;4.63;;
15449;SDS011;7826;49.784;9.934;2023-08-12T13:19:11;5.00;;;4.60;;
15449;SDS011;7826;49.784;9.934;2023-08-12T13:21:37;5.17;;;4.67;;
15449;SDS011;7826;49.784;9.934;2023-08-12T13:24:04;5.17;;;4.67;;
15449;SDS011;7826;49.784;9.934;2023-08-12T13:26:31;4.93;;;4.53;;
15449;SDS011;7826;49.784;9.934;2023-08-12T13:28:57;5.37;;;4.43;;
15449;SDS011;7826;49.784;9.934;2023-08-12T13:31:24;5.00;;;4.60;;
15449;SDS011;7826;49.784;9.934;2023-08-12T13:33:51;6.20;;;4.77;;
15449;SDS011;7826;49.784;9.934;2023-08-12T13:36:18;4.43;;;4.03;;
15449;SDS011;7826;49.784;9.934;2023-08-12T13:38:44;4.70;;;4.30;;
15449;SDS011;7826;49.784;9.934;2023-08-12T13:41:11;4.40;;;4.00;;
15449;SDS011;7826;49.784;9.934;2023-08-12T13:43:37;4.83;;;4.40;;
15449;SDS011;7826;49.784;9.934;2023-08-12T13:46:04;4.73;;;4.37;;
15449;SDS011;7826;49.784;9.934;2023-08-12T13:48:30;4.17;;;3.83;;
15449;SDS011;7826;49.784;9.934;2023-08-12T13:50:57;4.57;;;4.17;;
15449;SDS011;7826;49.784;9.934;2023-08-12T13:53:23;4.80;;;4.40;;
15449;SDS011;7826;49.784;9.934;2023-08-12T13:55:50;4.70;;;4.27;;
15449;SDS011;7826;49.784;9.934;2023-08-12T13:58:17;4.50;;;4.10;;
15449;SDS011;7826;49.784;9.934;2023-08-12T14:00:43;4.80;;;4.43;;
15449;SDS011;7826;49.784;9.934;2023-08-12T14:03:10;4.53;;;4.23;;
15449;SDS011;7826;49.784;9.934;2023-08-12T14:05:36;4.30;;;4.00;;
15449;SDS011;7826;49.784;9.934;2023-08-12T14:08:03;4.40;;;4.00;;
15449;SDS011;7826;49.784;9.934;2023-08-12T14:10:30;4.27;;;3.97;;
15449;SDS011;7826;49.784;9.934;2023-08-12T14:12:56;4.37;;;3.80;;
15449;SDS011;7826;49.784;9.934;2023-08-12T14:15:23;3.80;;;3.43;;
15449;SDS011;7826;49.784;9.934;2023-08-12T14:17:49;3.70;;;3.50;;
15449;SDS011;7826;49.784;9.934;2023-08-12T14:20:16;4.00;;;3.70;;
15449;SDS011;7826;49.784;9.934;2023-08-12T14:22:43;4.00;;;3.70;;
15449;SDS011;7826;49.784;9.934;2023-08-12T14:25:10;4.23;;;3.47;;
15449;SDS011;7826;49.784;9.934;2023-08-12T14:27:37;3.72;;;3.42;;
15449;SDS011;7826;49.784;9.934;2023-08-12T14:30:03;3.63;;;3.33;;
15449;SDS011;7826;49.784;9.934;2023-08-12T14:32:31;3.50;;;3.20;;
15449;SDS011;7826;49.784;9.934;2023-08-12T14:34:57;3.70;;;3.40;;
15449;SDS011;7826;49.784;9.934;2023-08-12T14:37:24;3.60;;;3.30;;
15449;SDS011;7826;49.784;9.934;2023-08-12T14:39:50;3.47;;;3.27;;
15449;SDS011;7826;49.784;9.934;2023-08-12T14:42:17;3.53;;;3.30;;
15449;SDS011;7826;49.784;9.934;2023-08-12T14:44:43;3.60;;;3.40;;
15449;SDS011;7826;49.784;9.934;2023-08-12T14:47:10;4.03;;;3.73;;
15449;SDS011;7826;49.784;9.934;2023-08-12T14:49:36;4.17;;;3.80;;
15449;SDS011;7826;49.784;9.934;2023-08-12T14:52:03;3.90;;;3.60;;
15449;SDS011;7826;49.784;9.934;2023-08-12T14:54:30;3.70;;;3.50;;
15449;SDS011;7826;49.784;9.934;2023-08-12T14:56:56;4.40;;;3.43;;
15449;SDS011;7826;49.784;9.934;2023-08-12T14:59:23;4.87;;;3.83;;
15449;SDS011;7826;49.784;9.934;2023-08-12T15:01:49;4.47;;;4.07;;
15449;SDS011;7826;49.784;9.934;2023-08-12T15:04:16;4.27;;;3.80;;
15449;SDS011;7826;49.784;9.934;2023-08-12T15:06:42;4.43;;;4.00;;